aviador You're here:

MMHO Decoded Metar

HERMOSILLO in MEXICO
Report Time2017-11-25 06:40:00
UTC Time2017-11-25 07:45:32
Flight Rules vfr VFR
WindCalm
Visibility9999 m
Phenomena:N/A
Clouds:N/A
Expected CloudBase > 4,400 ft AGL from Temp-Dew spread
CeilingNone
Temp21°C (ISA +7)
Dew Point10°C (50% RH)
QNH1014 hPa
Density Alt1,578 ft
Elevation604 ft
Report Wrong Elevation
Raw Report
METAR MMHO 250640Z 00000KT 10SM SKC 21/10 A2995 RMK HZY=

Extra information for MMHO:More info

Metar Taf Metar & Taf Last 4 Metars F.Rules Stats Wind Profile Meteogram Temp Stats Airport Information Weather charts Add Link Nearby VenuesMetar ALERT Operation Metar Decoded Social comments